Terminal Aerodrome Forecast
Issued by NWS

Home | Current Version | Previous Version | Text Only | Print | Product List | Glossary On
Versions: 1 2 3 4 5 6 7 8 9 10 11 12 13 14
000
FTUS45 KRIW 020500
TAFRKS
TAF
KRKS 020520Z 0206/0306 06012KT P6SM SCT110
     FM021200 08007KT P6SM FEW120
     FM022100 07010KT P6SM VCSH SCT110 BKN200=

USA.gov is the U.S. government's official web portal to all federal, state and local government web resources and services.